METAR Data
IDs: Format: Raw Decoded Include TAF

Data at: 0506 UTC 20 Oct 2018

PAPB 200453Z AUTO 27010KT 10SM FEW040 04/M02 A2942 RMK AO2 SLP951 T00441017 TSNO $
PAPB 200353Z AUTO 27011KT 10SM SCT044 05/M02 A2942 RMK AO2 SLP951 T00501017 TSNO $
PAPB 200253Z AUTO 27011KT 10SM BKN042 06/M02 A2942 RMK AO2 SLP952 T00561017 58014 TSNO $
PAPB 200153Z AUTO 28012KT 10SM OVC041 06/M01 A2944 RMK AO2 SLP957 T00561006 TSNO $
PAPB 200053Z AUTO 27010KT 10SM OVC045 06/M02 A2945 RMK AO2 SLP961 T00561017 TSNO $
PAPB 192353Z AUTO 27012KT 10SM OVC043 06/M01 A2946 RMK AO2 SLP966 T00611011 10061 20039 58015 TSNO $
PAPB 192253Z AUTO 28010KT 10SM OVC043 06/M02 A2948 RMK AO2 SLP972 T00611017 TSNO $
PAPB 192153Z AUTO 29010KT 10SM OVC045 06/M02 A2950 RMK AO2 SLP976 T00561022 TSNO $
PAPB 192053Z AUTO 31010KT 10SM OVC043 05/M01 A2951 RMK AO2 SLP981 T00501006 58009 TSNO $
PAPB 191953Z AUTO 32009G21KT 10SM FEW035 OVC043 04/00 A2952 RMK AO2 SLP985 T00390000 TSNO $
PAPB 191853Z AUTO 29009KT 10SM OVC044 05/M03 A2953 RMK AO2 SLP986 T00501028 TSNO
PAPB 191753Z AUTO 32010KT 10SM OVC046 04/M01 A2954 RMK AO2 SLP990 T00391011 10050 20011 56017 TSNO
PAPB 191653Z AUTO 31008KT 10SM OVC044 04/00 A2955 RMK AO2 SLP995 T00390000 TSNO
PAPB 191553Z AUTO 29011KT 10SM FEW035 OVC045 04/01 A2956 RMK AO2 SLP999 T00440011 TSNO
PAPB 191453Z AUTO 29012KT 10SM OVC048 04/01 A2958 RMK AO2 SLP006 T00440006 58021 TSNO
PAPB 191353Z AUTO 31008KT 10SM BKN055 03/M01 A2961 RMK AO2 SLP015 T00331011 TSNO
PAPB 191253Z AUTO 31009KT 10SM FEW028 SCT050 03/01 A2963 RMK AO2 SLP021 T00280011 TSNO
PAPB 191153Z AUTO 34009KT 10SM FEW028 OVC050 04/02 A2965 RMK AO2 SLP027 70001 T00390017 10050 20022 58019 TSNO
PAPB 191053Z AUTO 31009KT 10SM FEW029 SCT049 03/01 A2966 RMK AO2 SLP033 T00280006 TSNO
PAPB 190953Z AUTO 32010KT 10SM BKN055 04/01 A2969 RMK AO2 SLP041 T00390006 TSNO
PAPB 190853Z AUTO 33010KT 10SM CLR 03/00 A2970 RMK AO2 SLP047 T00280000 400670022 56014 TSNO
PAPB 190753Z AUTO 34009KT 10SM FEW048 03/00 A2971 RMK AO2 SLP050 T00330000 TSNO
PAPB 190653Z AUTO 33011KT 10SM FEW028 FEW055 03/00 A2973 RMK AO2 SLP055 T00330000 TSNO
PAPB 190553Z AUTO 34014KT 10SM SCT029 SCT038 OVC055 05/M01 A2974 RMK AO2 SLP060 T00501006 10067 20044 57012 TSNO
PAPB 190453Z AUTO 33011KT 10SM OVC060 04/01 A2975 RMK AO2 SLP064 T00440006 TSNO
PAPB 190353Z AUTO 36009KT 10SM FEW034 OVC060 05/01 A2977 RMK AO2 SLP069 T00500011 TSNO
PAPB 190253Z AUTO 33014KT 10SM FEW031 FEW041 OVC060 06/01 A2978 RMK AO2 SLP072 T00560006 56012 TSNO
PAPB 190153Z AUTO 34016G22KT 10SM OVC055 06/01 A2979 RMK AO2 SLP074 T00560011 TSNO
PAPB 190053Z AUTO 34015G22KT 10SM FEW026 FEW043 OVC055 06/01 A2979 RMK AO2 SLP077 T00610011 TSNO
PAPB 182353Z AUTO 32011KT 10SM SCT041 BKN060 06/02 A2981 RMK AO2 SLP084 60001 T00610017 10067 20033 58013 TSNO
PAPB 182253Z AUTO 33016G22KT 10SM FEW035 07/02 A2983 RMK AO2 PK WND 33030/2204 RAB07E21 SLP089 P0000 T00670017 TSNO
PAPB 182153Z AUTO 34015G24KT 10SM FEW026 SCT039 OVC050 06/02 A2984 RMK AO2 PK WND 35026/2100 RAB11E20 SLP094 P0000 T00560017 TSNO
PAPB 182053Z AUTO 32015G21KT 10SM OVC050 06/M01 A2985 RMK AO2 SLP097 60001 T00561011 50001 TSNO
PAPB 181953Z AUTO 34017KT 10SM OVC060 06/M01 A2985 RMK AO2 PK WND 33026/1917 RAB1854E03 SLP098 P0000 T00561011 TSNO
PAPB 181853Z AUTO 33022G29KT 8SM FEW024 SCT034 OVC060 04/01 A2985 RMK AO2 PK WND 33029/1851 RAB15E26 SLP097 P0001 T00440011 TSNO
PAPB 181753Z AUTO 33014KT 10SM OVC055 04/01 A2985 RMK AO2 PK WND 33027/1713 SLP095 60000 T00440011 10056 20033 52006 TSNO